createdAt,value
2022-12-01T00:01:20.412Z,11.02
2022-12-01T00:03:49.696Z,10.38
2022-12-01T00:06:19.890Z,10.82
2022-12-01T00:09:03.086Z,9.18
2022-12-01T00:11:31.142Z,10.10
2022-12-01T00:13:58.986Z,10.00
2022-12-01T00:16:26.905Z,9.45
2022-12-01T00:18:56.376Z,9.95
2022-12-01T00:21:25.621Z,9.25
2022-12-01T00:23:55.481Z,10.40
2022-12-01T00:26:24.380Z,10.50
2022-12-01T00:28:53.283Z,9.13
2022-12-01T00:31:21.330Z,9.50
2022-12-01T00:33:49.224Z,9.93
2022-12-01T00:36:19.421Z,10.35
2022-12-01T00:38:47.548Z,10.13
2022-12-01T00:41:15.622Z,11.20
2022-12-01T00:43:43.419Z,10.93
2022-12-01T00:46:11.320Z,9.32
2022-12-01T00:48:39.258Z,9.80
2022-12-01T00:51:07.351Z,9.80
2022-12-01T00:53:36.557Z,10.20
2022-12-01T00:56:04.521Z,10.63
2022-12-01T00:58:32.322Z,9.27
2022-12-01T01:01:01.096Z,8.50
2022-12-01T01:03:29.683Z,8.63
2022-12-01T01:05:57.573Z,9.02
2022-12-01T01:08:25.727Z,9.60
2022-12-01T01:10:54.962Z,9.43
2022-12-01T01:13:22.930Z,10.03
2022-12-01T01:15:59.128Z,9.70
2022-12-01T01:18:27.037Z,10.38
2022-12-01T01:20:59.107Z,10.07
2022-12-01T01:23:27.765Z,10.27
2022-12-01T01:26:02.235Z,10.07
2022-12-01T01:28:31.433Z,10.27
2022-12-01T01:30:59.862Z,10.77
2022-12-01T01:33:27.750Z,10.57
2022-12-01T01:35:59.398Z,10.23
2022-12-01T01:38:27.284Z,10.20
2022-12-01T01:40:56.558Z,9.57
2022-12-01T01:43:44.977Z,10.25
2022-12-01T01:46:14.551Z,9.45
2022-12-01T01:48:44.928Z,9.48
2022-12-01T01:51:15.612Z,10.75
2022-12-01T01:53:44.670Z,8.77
2022-12-01T01:56:13.903Z,9.57
2022-12-01T01:58:42.648Z,10.40
2022-12-01T02:01:10.516Z,10.02
2022-12-01T02:03:40.990Z,10.30
2022-12-01T02:06:10.496Z,9.80
2022-12-01T02:08:38.506Z,10.05
2022-12-01T02:11:29.240Z,9.27
2022-12-01T02:14:10.866Z,9.65
2022-12-01T02:16:45.565Z,9.18
2022-12-01T02:19:37.679Z,10.10
2022-12-01T02:22:18.854Z,9.05
2022-12-01T02:25:09.210Z,10.05
2022-12-01T02:27:52.801Z,7.95
2022-12-01T02:30:33.549Z,10.25
2022-12-01T02:33:08.573Z,9.60
2022-12-01T02:35:44.120Z,9.20
2022-12-01T02:38:19.170Z,10.05
2022-12-01T02:40:53.308Z,9.82
2022-12-01T02:43:30.334Z,9.38
2022-12-01T02:46:06.334Z,10.55
2022-12-01T02:48:35.701Z,10.93
2022-12-01T02:51:11.930Z,11.07
2022-12-01T02:53:39.924Z,10.57
2022-12-01T02:56:12.138Z,11.55
2022-12-01T02:58:40.385Z,9.48
2022-12-01T03:01:29.548Z,10.52
2022-12-01T03:04:05.301Z,10.40
2022-12-01T03:06:42.557Z,10.23
2022-12-01T03:09:21.690Z,10.30
2022-12-01T03:11:57.906Z,7.93
2022-12-01T03:14:37.266Z,9.48
2022-12-01T03:17:09.830Z,9.88
2022-12-01T03:19:43.719Z,9.98
2022-12-01T03:22:15.368Z,9.95
2022-12-01T03:24:47.534Z,9.45
2022-12-01T03:27:18.430Z,9.98
2022-12-01T03:29:49.721Z,9.73
2022-12-01T03:32:23.849Z,10.90
2022-12-01T03:34:56.522Z,9.65
2022-12-01T03:37:31.804Z,10.40
2022-12-01T03:40:01.702Z,10.68
2022-12-01T03:45:05.990Z,9.85
2022-12-01T03:47:37.703Z,10.60
2022-12-01T03:50:07.982Z,10.63
2022-12-01T03:52:42.066Z,10.10
2022-12-01T03:55:14.272Z,10.32
2022-12-01T03:57:47.918Z,9.60
2022-12-01T04:00:16.992Z,11.00
2022-12-01T04:02:46.394Z,9.35
2022-12-01T04:05:14.298Z,6.93
2022-12-01T04:07:42.157Z,10.30
2022-12-01T04:10:10.696Z,10.68
2022-12-01T04:12:37.542Z,11.48
2022-12-01T04:15:08.047Z,10.98
2022-12-01T04:17:35.966Z,10.50
2022-12-01T04:20:06.576Z,11.55
2022-12-01T04:22:34.917Z,11.15
2022-12-01T04:25:02.837Z,11.90
2022-12-01T04:27:30.671Z,10.90
2022-12-01T04:29:58.464Z,11.25
2022-12-01T04:32:26.669Z,9.82
2022-12-01T04:34:54.631Z,10.00
2022-12-01T04:37:23.802Z,10.13
2022-12-01T04:39:52.027Z,10.77
2022-12-01T04:42:20.486Z,9.68
2022-12-01T04:44:48.311Z,9.40
2022-12-01T04:47:16.105Z,9.20
2022-12-01T04:49:43.933Z,9.48
2022-12-01T04:52:11.961Z,9.15
2022-12-01T04:54:41.262Z,10.50
2022-12-01T04:57:09.084Z,10.02
2022-12-01T04:59:36.932Z,10.77
2022-12-01T05:02:04.873Z,11.05
2022-12-01T05:04:34.156Z,9.70
2022-12-01T05:07:01.988Z,11.13
2022-12-01T05:09:29.793Z,11.15
2022-12-01T05:11:58.974Z,10.80
2022-12-01T05:14:26.850Z,10.57
2022-12-01T05:16:55.978Z,11.73
2022-12-01T05:19:41.046Z,10.05
2022-12-01T05:22:08.843Z,11.43
2022-12-01T05:24:36.913Z,10.43
2022-12-01T05:27:06.080Z,10.18
2022-12-01T05:29:34.255Z,10.77
2022-12-01T05:32:03.100Z,10.15
2022-12-01T05:34:31.014Z,10.57
2022-12-01T05:37:01.909Z,12.50
2022-12-01T05:39:29.998Z,14.32
2022-12-01T05:41:57.847Z,15.20
2022-12-01T05:44:29.333Z,12.95
2022-12-01T05:46:57.129Z,14.90
2022-12-01T05:49:24.966Z,14.15
2022-12-01T05:51:52.793Z,13.40
2022-12-01T05:54:20.650Z,15.07
2022-12-01T05:56:48.469Z,14.43
2022-12-01T05:59:16.357Z,24.35
2022-12-01T06:01:45.615Z,15.05
2022-12-01T06:04:13.914Z,15.70
2022-12-01T06:06:41.746Z,16.23
2022-12-01T06:09:09.831Z,18.60
2022-12-01T06:11:37.670Z,14.00
2022-12-01T06:14:05.806Z,16.02
2022-12-01T06:16:33.666Z,15.98
2022-12-01T06:19:02.918Z,15.88
2022-12-01T06:21:30.735Z,14.03
2022-12-01T06:23:58.558Z,14.73
2022-12-01T06:26:26.449Z,15.25
2022-12-01T06:28:54.261Z,12.98
2022-12-01T06:31:22.140Z,13.40
2022-12-01T06:33:50.007Z,14.65
2022-12-01T06:36:19.214Z,13.93
2022-12-01T06:38:47.010Z,13.97
2022-12-01T06:41:14.806Z,13.32
2022-12-01T06:43:42.728Z,12.95
2022-12-01T06:46:10.633Z,13.48
2022-12-01T06:48:40.739Z,11.45
2022-12-01T06:51:10.881Z,10.70
2022-12-01T06:53:40.256Z,8.73
2022-12-01T06:56:08.815Z,13.30
2022-12-01T06:58:36.989Z,12.52
2022-12-01T07:01:09.609Z,12.85
2022-12-01T07:03:37.513Z,12.75
2022-12-01T07:06:05.877Z,11.10
2022-12-01T07:08:34.146Z,11.15
2022-12-01T07:11:05.318Z,11.68
2022-12-01T07:13:34.095Z,11.52
2022-12-01T07:16:03.236Z,11.27
2022-12-01T07:18:31.548Z,10.67
2022-12-01T07:21:01.297Z,12.27
2022-12-01T07:23:29.177Z,11.85
2022-12-01T07:26:01.122Z,10.43
2022-12-01T07:28:30.689Z,11.38
2022-12-01T07:31:03.864Z,10.10
2022-12-01T07:33:32.143Z,10.20
2022-12-01T07:36:00.234Z,10.25
2022-12-01T07:38:28.969Z,11.63
2022-12-01T07:41:02.284Z,9.85
2022-12-01T07:43:32.649Z,11.48
2022-12-01T07:46:08.781Z,10.05
2022-12-01T07:48:37.507Z,12.90
2022-12-01T07:51:06.057Z,12.93
2022-12-01T07:53:34.221Z,11.60
2022-12-01T07:56:08.208Z,10.77
2022-12-01T07:58:38.448Z,10.85
2022-12-01T08:01:12.129Z,12.18
2022-12-01T08:03:40.119Z,11.57
2022-12-01T08:06:09.183Z,12.65
2022-12-01T08:08:39.138Z,13.80
2022-12-01T08:11:08.674Z,13.95
2022-12-01T08:13:37.916Z,11.27
2022-12-01T08:16:06.476Z,11.67
2022-12-01T08:18:35.517Z,11.75
2022-12-01T08:21:03.507Z,11.05
2022-12-01T08:23:31.534Z,10.75
2022-12-01T08:26:02.067Z,11.18
2022-12-01T08:28:30.194Z,9.93
2022-12-01T08:30:59.469Z,10.43
2022-12-01T08:33:27.305Z,10.90
2022-12-01T08:35:55.307Z,11.48
2022-12-01T08:38:23.171Z,11.65
2022-12-01T08:40:50.985Z,10.23
2022-12-01T08:43:49.490Z,10.65
2022-12-01T08:46:08.667Z,10.48
2022-12-01T08:48:36.817Z,11.80
2022-12-01T08:51:06.616Z,11.50
2022-12-01T08:53:35.635Z,10.38
2022-12-01T08:56:05.565Z,10.90
2022-12-01T08:58:33.569Z,11.68
2022-12-01T09:01:07.694Z,11.07
2022-12-01T09:03:38.306Z,11.18
2022-12-01T09:06:08.607Z,10.88
2022-12-01T09:08:37.953Z,10.90
2022-12-01T09:11:08.170Z,11.52
2022-12-01T09:16:06.208Z,9.45
2022-12-01T09:18:34.328Z,10.40
2022-12-01T09:21:11.293Z,10.40
2022-12-01T09:23:39.680Z,10.93
2022-12-01T09:26:13.234Z,10.93
2022-12-01T09:28:41.573Z,10.45
2022-12-01T09:31:12.837Z,10.18
2022-12-01T09:33:40.953Z,10.20
2022-12-01T09:36:11.080Z,9.27
2022-12-01T09:41:16.511Z,10.45
2022-12-01T09:43:49.153Z,9.90
2022-12-01T09:46:21.460Z,11.70
2022-12-01T09:48:52.290Z,10.00
2022-12-01T09:51:23.849Z,9.88
2022-12-01T09:53:54.018Z,11.00
2022-12-01T09:58:53.922Z,10.10
2022-12-01T10:01:32.273Z,10.02
2022-12-01T10:04:06.949Z,9.90
2022-12-01T10:06:40.384Z,10.43
2022-12-01T10:09:20.630Z,11.45
2022-12-01T10:14:20.364Z,9.73
2022-12-01T10:17:00.889Z,10.60
2022-12-01T10:22:17.941Z,9.68
2022-12-01T10:24:54.849Z,9.90
2022-12-01T10:27:35.364Z,10.77
2022-12-01T10:30:06.998Z,10.82
2022-12-01T10:32:45.862Z,9.88
2022-12-01T10:35:17.605Z,11.70
2022-12-01T10:37:48.171Z,11.50
2022-12-01T10:40:17.806Z,11.27
2022-12-01T10:42:47.567Z,11.38
2022-12-01T10:45:18.259Z,11.35
2022-12-01T10:48:09.089Z,10.65
2022-12-01T10:50:37.887Z,9.80
2022-12-01T10:53:07.079Z,10.30
2022-12-01T10:55:37.825Z,10.57
2022-12-01T10:58:16.269Z,11.23
2022-12-01T11:01:01.445Z,10.18
2022-12-01T11:03:32.878Z,10.38
2022-12-01T11:06:02.785Z,10.38
2022-12-01T11:08:44.772Z,9.80
2022-12-01T11:11:26.816Z,10.75
2022-12-01T11:13:55.888Z,9.75
2022-12-01T11:16:45.207Z,9.85
2022-12-01T11:19:27.152Z,10.38
2022-12-01T11:21:57.165Z,9.95
2022-12-01T11:24:42.230Z,10.10
2022-12-01T11:27:21.197Z,9.60
2022-12-01T11:29:51.449Z,10.02
2022-12-01T11:32:23.560Z,10.52
2022-12-01T11:34:56.659Z,9.98
2022-12-01T11:37:27.067Z,10.65
2022-12-01T11:40:08.189Z,10.38
2022-12-01T11:42:37.082Z,12.00
2022-12-01T11:45:08.726Z,12.70
2022-12-01T11:47:36.610Z,12.15
2022-12-01T11:50:23.742Z,12.25
2022-12-01T11:52:51.588Z,10.90
2022-12-01T11:55:25.601Z,12.15
2022-12-01T11:57:56.122Z,12.23
2022-12-01T12:00:26.356Z,11.07
2022-12-01T12:05:49.130Z,10.73
2022-12-01T12:08:31.953Z,9.82
2022-12-01T12:11:13.335Z,10.35
2022-12-01T12:13:59.007Z,9.68
2022-12-01T12:16:39.585Z,9.68
2022-12-01T12:19:33.706Z,9.30
2022-12-01T12:22:14.061Z,9.80
2022-12-01T12:24:54.344Z,10.00
2022-12-01T12:30:10.492Z,9.13
2022-12-01T12:32:52.892Z,9.27
2022-12-01T12:35:32.025Z,8.98
2022-12-01T12:38:08.794Z,9.57
2022-12-01T12:40:43.543Z,9.95
2022-12-01T12:43:23.008Z,9.48
2022-12-01T12:46:00.983Z,10.32
2022-12-01T12:49:18.115Z,9.20
2022-12-01T12:51:40.358Z,9.57
2022-12-01T12:54:23.164Z,10.43
2022-12-01T12:56:56.096Z,10.57
2022-12-01T12:59:31.280Z,10.52
2022-12-01T13:02:05.811Z,10.25
2022-12-01T13:04:41.921Z,9.73
2022-12-01T13:07:30.139Z,10.75
2022-12-01T13:10:02.371Z,10.30
2022-12-01T13:12:31.788Z,10.32
2022-12-01T13:15:13.029Z,9.48
2022-12-01T13:17:44.846Z,10.30
2022-12-01T13:20:16.027Z,10.38
2022-12-01T13:22:44.307Z,10.88
2022-12-01T13:25:15.053Z,10.80
2022-12-01T13:27:45.105Z,10.15
2022-12-01T13:30:23.648Z,9.60
2022-12-01T13:33:00.167Z,10.60
2022-12-01T13:35:32.058Z,9.75
2022-12-01T13:38:21.824Z,9.88
2022-12-01T13:40:50.240Z,10.10
2022-12-01T13:43:20.922Z,9.23
2022-12-01T13:45:51.227Z,9.52
2022-12-01T13:48:30.925Z,9.13
2022-12-01T13:51:01.735Z,9.13
2022-12-01T13:53:32.194Z,9.88
2022-12-01T13:56:06.621Z,9.73
2022-12-01T13:58:46.166Z,9.68
2022-12-01T14:01:50.524Z,9.45
2022-12-01T14:04:32.784Z,10.73
2022-12-01T14:07:24.788Z,10.20
2022-12-01T14:09:54.488Z,10.95
2022-12-01T14:12:26.172Z,10.38
2022-12-01T14:14:59.686Z,9.57
2022-12-01T14:17:32.779Z,9.52
2022-12-01T14:20:08.709Z,10.23
2022-12-01T14:22:39.777Z,9.55
2022-12-01T14:25:25.806Z,9.57
2022-12-01T14:27:56.045Z,9.95
2022-12-01T14:33:55.803Z,9.27
2022-12-01T14:36:35.364Z,10.55
2022-12-01T14:39:07.629Z,10.25
2022-12-01T14:41:43.383Z,11.38
2022-12-01T14:44:21.954Z,10.50
2022-12-01T14:46:55.663Z,10.90
2022-12-01T14:49:26.690Z,11.45
2022-12-01T14:52:00.026Z,11.85
2022-12-01T14:54:31.201Z,11.05
2022-12-01T14:57:06.254Z,12.50
2022-12-01T14:59:36.505Z,13.98
2022-12-01T15:02:09.150Z,12.73
2022-12-01T15:04:57.582Z,11.52
2022-12-01T15:07:26.951Z,11.73
2022-12-01T15:10:00.812Z,11.48
2022-12-01T15:12:30.657Z,12.00
2022-12-01T15:14:58.460Z,11.73
2022-12-01T15:17:32.018Z,12.02
2022-12-01T15:20:00.349Z,12.23
2022-12-01T15:22:31.913Z,12.30
2022-12-01T15:25:07.759Z,11.60
2022-12-01T15:27:35.606Z,11.00
2022-12-01T15:30:04.516Z,11.48
2022-12-01T15:32:35.126Z,11.33
2022-12-01T15:35:04.752Z,11.32
2022-12-01T15:37:42.884Z,11.70
2022-12-01T15:43:16.709Z,10.93
2022-12-01T15:45:50.762Z,10.90
2022-12-01T15:48:26.359Z,12.20
2022-12-01T15:51:07.654Z,11.50
2022-12-01T15:53:40.120Z,10.70
2022-12-01T15:56:10.901Z,10.55
2022-12-01T15:58:43.687Z,10.25
2022-12-01T16:01:14.046Z,24.77
2022-12-01T16:03:52.758Z,89.75
2022-12-01T16:06:23.296Z,40.80
2022-12-01T16:09:00.555Z,19.30
2022-12-01T16:11:29.132Z,33.03
2022-12-01T16:14:02.852Z,33.35
2022-12-01T16:16:44.929Z,52.92
2022-12-01T16:19:36.079Z,53.08
2022-12-01T16:22:15.866Z,19.60
2022-12-01T16:24:51.387Z,16.60
2022-12-01T16:27:23.494Z,14.57
2022-12-01T16:29:53.722Z,13.32
2022-12-01T16:34:53.218Z,24.00
2022-12-01T16:37:21.631Z,25.75
2022-12-01T16:39:50.960Z,27.40
2022-12-01T16:42:21.653Z,25.58
2022-12-01T16:44:50.882Z,24.63
2022-12-01T16:47:20.769Z,15.77
2022-12-01T16:49:48.750Z,16.00
2022-12-01T16:55:20.414Z,15.00
2022-12-01T16:57:48.493Z,17.88
2022-12-01T17:00:17.182Z,17.38
2022-12-01T17:02:47.219Z,16.75
2022-12-01T17:05:16.273Z,16.58
2022-12-01T17:07:44.216Z,23.55
2022-12-01T17:10:14.451Z,35.70
2022-12-01T17:15:10.417Z,25.27
2022-12-01T17:17:38.870Z,25.33
2022-12-01T17:20:08.386Z,41.45
2022-12-01T17:22:36.371Z,25.13
2022-12-01T17:25:05.627Z,25.38
2022-12-01T17:27:34.849Z,20.77
2022-12-01T17:30:03.262Z,19.02
2022-12-01T17:32:31.165Z,18.33
2022-12-01T17:34:59.054Z,16.15
2022-12-01T17:37:27.976Z,16.38
2022-12-01T17:39:56.001Z,14.80
2022-12-01T17:42:24.175Z,14.90
2022-12-01T17:44:53.360Z,15.05
2022-12-01T17:47:21.182Z,17.35
2022-12-01T17:49:49.027Z,14.55
2022-12-01T17:52:16.926Z,14.25
2022-12-01T17:54:44.789Z,13.60
2022-12-01T17:57:12.953Z,15.80
2022-12-01T17:59:41.193Z,14.77
2022-12-01T18:02:12.875Z,13.52
2022-12-01T18:04:42.001Z,14.88
2022-12-01T18:07:09.903Z,14.23
2022-12-01T18:09:37.860Z,13.02
2022-12-01T18:12:06.383Z,14.43
2022-12-01T18:14:34.631Z,15.25
2022-12-01T18:17:02.798Z,14.80
2022-12-01T18:19:32.230Z,15.73
2022-12-01T18:22:00.121Z,14.70
2022-12-01T18:24:27.967Z,15.15
2022-12-01T18:26:55.961Z,14.77
2022-12-01T18:29:26.143Z,14.63
2022-12-01T18:31:54.797Z,16.38
2022-12-01T18:34:22.811Z,19.38
2022-12-01T18:36:52.122Z,15.32
2022-12-01T18:39:19.949Z,14.70
2022-12-01T18:41:47.996Z,12.55
2022-12-01T18:44:16.054Z,12.82
2022-12-01T18:46:43.967Z,12.90
2022-12-01T18:49:12.914Z,13.68
2022-12-01T18:51:41.673Z,14.10
2022-12-01T18:54:15.193Z,14.32
2022-12-01T18:56:43.397Z,14.07
2022-12-01T18:59:12.998Z,15.02
2022-12-01T19:01:44.275Z,14.10
2022-12-01T19:04:13.332Z,14.07
2022-12-01T19:06:42.863Z,13.43
2022-12-01T19:09:13.708Z,15.15
2022-12-01T19:11:42.295Z,15.65
2022-12-01T19:14:14.418Z,15.23
2022-12-01T19:16:42.503Z,15.50
2022-12-01T19:19:10.800Z,15.85
2022-12-01T19:21:38.706Z,17.13
2022-12-01T19:24:07.336Z,17.20
2022-12-01T19:26:36.661Z,16.17
2022-12-01T19:29:04.900Z,16.08
2022-12-01T19:31:32.814Z,13.27
2022-12-01T19:34:00.686Z,13.10
2022-12-01T19:36:29.453Z,12.98
2022-12-01T19:38:58.023Z,13.35
2022-12-01T19:41:26.289Z,14.50
2022-12-01T19:43:56.065Z,13.25
2022-12-01T19:46:27.075Z,12.82
2022-12-01T19:48:56.591Z,12.98
2022-12-01T19:51:26.399Z,13.07
2022-12-01T19:53:55.442Z,13.52
2022-12-01T19:56:23.548Z,11.68
2022-12-01T19:58:51.443Z,14.25
2022-12-01T20:01:21.912Z,13.13
2022-12-01T20:03:52.330Z,13.10
2022-12-01T20:06:21.814Z,12.90
2022-12-01T20:08:50.066Z,13.32
2022-12-01T20:11:21.086Z,12.15
2022-12-01T20:13:49.269Z,11.80
2022-12-01T20:16:19.205Z,11.80
2022-12-01T20:18:49.598Z,13.07
2022-12-01T20:21:19.857Z,13.57
2022-12-01T20:23:49.381Z,12.20
2022-12-01T20:26:19.504Z,12.90
2022-12-01T20:28:51.447Z,13.05
2022-12-01T20:31:22.926Z,11.85
2022-12-01T20:33:54.404Z,12.10
2022-12-01T20:36:22.813Z,11.60
2022-12-01T20:38:50.655Z,13.48
2022-12-01T20:41:18.870Z,14.07
2022-12-01T20:43:46.706Z,19.38
2022-12-01T20:46:15.508Z,34.50
2022-12-01T20:48:43.979Z,26.30
2022-12-01T20:51:14.885Z,19.13
2022-12-01T20:53:59.544Z,27.65
2022-12-01T20:56:31.198Z,34.03
2022-12-01T20:58:59.750Z,29.60
2022-12-01T21:01:27.870Z,37.40
2022-12-01T21:03:55.934Z,20.20
2022-12-01T21:06:25.402Z,18.45
2022-12-01T21:08:53.296Z,13.27
2022-12-01T21:11:44.713Z,12.45
2022-12-01T21:14:16.583Z,11.98
2022-12-01T21:16:48.344Z,11.07
2022-12-01T21:19:22.973Z,12.07
2022-12-01T21:21:52.165Z,11.68
2022-12-01T21:24:22.342Z,11.93
2022-12-01T21:29:22.426Z,11.57
2022-12-01T21:31:52.906Z,12.35
2022-12-01T21:34:23.046Z,12.68
2022-12-01T21:39:22.618Z,12.90
2022-12-01T21:41:51.771Z,12.65
2022-12-01T21:44:21.558Z,12.52
2022-12-01T21:46:53.785Z,13.13
2022-12-01T21:49:23.317Z,14.10
2022-12-01T21:51:54.233Z,14.18
2022-12-01T21:54:23.524Z,19.52
2022-12-01T21:56:55.770Z,16.43
2022-12-01T21:59:24.707Z,13.70
2022-12-01T22:01:55.140Z,12.52
2022-12-01T22:04:25.786Z,12.02
2022-12-01T22:06:56.618Z,12.00
2022-12-01T22:13:10.274Z,11.10
2022-12-01T22:15:42.648Z,12.02
2022-12-01T22:18:20.224Z,12.68
2022-12-01T22:20:48.035Z,12.07
2022-12-01T22:23:17.432Z,12.00
2022-12-01T22:25:47.115Z,12.40
2022-12-01T22:28:24.590Z,12.13
2022-12-01T22:30:53.397Z,11.43
2022-12-01T22:33:23.794Z,11.93
2022-12-01T22:35:53.372Z,12.13
2022-12-01T22:38:33.981Z,12.68
2022-12-01T22:41:05.005Z,12.68
2022-12-01T22:43:47.335Z,10.52
2022-12-01T22:46:33.457Z,13.55
2022-12-01T22:49:09.189Z,13.15
2022-12-01T22:51:43.089Z,13.13
2022-12-01T22:54:35.350Z,12.90
2022-12-01T22:57:27.893Z,12.10
2022-12-01T22:59:56.666Z,11.27
2022-12-01T23:02:28.064Z,11.95
2022-12-01T23:04:59.835Z,11.25
2022-12-01T23:07:30.886Z,11.70
2022-12-01T23:10:06.045Z,11.38
2022-12-01T23:12:35.462Z,11.38
2022-12-01T23:15:17.686Z,10.53
2022-12-01T23:17:45.532Z,11.00
2022-12-01T23:20:27.404Z,11.40
2022-12-01T23:22:56.391Z,12.38
2022-12-01T23:25:27.397Z,11.02
2022-12-01T23:27:59.268Z,11.30
2022-12-01T23:30:27.595Z,11.68
2022-12-01T23:33:12.286Z,11.57
2022-12-01T23:35:47.826Z,11.32
2022-12-01T23:38:19.487Z,10.77
2022-12-01T23:40:50.422Z,12.75
2022-12-01T23:43:21.590Z,10.98
2022-12-01T23:45:52.396Z,11.57
2022-12-01T23:48:23.012Z,11.73
2022-12-01T23:50:53.849Z,11.10
2022-12-01T23:53:32.545Z,12.05
2022-12-01T23:56:05.807Z,11.27
2022-12-01T23:58:34.770Z,11.05
